Flight Track Log - Related Links

Times and Time Zones

All times are in EDT time to prevent confusion due to time zone crossing. See the N960DL flight status page for this flight to view local times or setup timezone preferences in your user account.


Time Position Orientation Groundspeed Altitude Reporting Facility
EDT Latitude Longitude Course Direction KTS MPH feet Rate Location/Type
Wed 07:47:18 PM 33.6500 -84.3500 234° Southwest 204 235 2,800  Level Atlanta TRACON
Wed 07:48:24 PM 33.7000 -84.2833 48° Northeast 280 322 5,600 2,857 Climbing Atlanta TRACON
Wed 07:49:00 PM 33.8001 -84.3644 270° West  Level FlightAware Approximate
Wed 07:49:24 PM 33.7833 -84.2833 360° North 291 335 8,800  Level Atlanta TRACON
Wed 07:50:00 PM 33.8001 -84.5023 270° West  Level FlightAware Approximate
Wed 07:50:18 PM 33.8167 -84.3667 296° West 327 376 10,700  Level Atlanta TRACON
Wed 07:51:00 PM 33.7663 -84.6278 234° Southwest  Level FlightAware Approximate
Wed 07:52:00 PM 33.6981 -84.7386 234° Southwest  Level FlightAware Approximate
Wed 07:52:41 PM 33.7739 -84.6411 259° West 370 426 16,700  Level Atlanta Center
Wed 07:53:41 PM 33.7067 -84.7456 232° Southwest 371 427 19,000 2,200 Climbing Atlanta Center
Wed 07:54:41 PM 33.6475 -84.8497 236° Southwest 387 445 21,100 1,800 Climbing Atlanta Center
Wed 07:55:41 PM 33.6008 -84.9742 246° West 405 466 22,600 1,600 Climbing Atlanta Center
Wed 07:56:41 PM 33.5536 -85.1106 247° West 435 501 24,300 1,550 Climbing Atlanta Center
Wed 07:57:41 PM 33.5064 -85.2594 249° West 445 512 25,700 1,550 Climbing Atlanta Center
Wed 07:58:41 PM 33.4839 -85.4086 260° West 451 519 27,400 2,000 Climbing Atlanta Center
Wed 07:59:41 PM 33.4614 -85.5503 259° West 456 525 29,700 1,850 Climbing Atlanta Center
Wed 08:00:41 PM 33.4389 -85.6917 259° West 439 505 31,100 1,150 Climbing Atlanta Center
Wed 08:01:41 PM 33.4203 -85.8133 260° West 427 491 32,000 900 Climbing Atlanta Center
Wed 08:02:41 PM 33.3997 -85.9447 259° West 420 483 32,900 1,000 Climbing Atlanta Center
Wed 08:03:41 PM 33.3786 -86.0861 260° West 420 483 34,000 550 Climbing Atlanta Center
Wed 08:04:41 PM 33.3472 -86.2147 254° West 420 483 34,000  Level Atlanta Center
Wed 08:05:41 PM 33.3072 -86.3456 250° West 415 478 34,000  Level Atlanta Center
Wed 08:06:41 PM 33.2694 -86.4711 250° West 420 483 34,000  Level Atlanta Center
Wed 08:07:41 PM 33.2336 -86.5919 251° West 413 475 34,000  Level Atlanta Center
Wed 08:08:41 PM 33.1931 -86.7297 251° West 420 483 34,000  Level Atlanta Center
Wed 08:09:41 PM 33.1567 -86.8550 251° West 420 483 34,000  Level Atlanta Center
Wed 08:10:41 PM 33.1161 -86.9878 250° West 420 483 34,000 350 Level Atlanta Center
Wed 08:11:41 PM 33.0667 -87.1272 247° West 420 483 34,700 600 Climbing Atlanta Center
Wed 08:12:41 PM 33.0261 -87.2522 249° West 420 483 35,200 550 Climbing Atlanta Center
Wed 08:13:41 PM 32.9892 -87.3772 251° West 427 491 35,800 286 Climbing Atlanta Center
Wed 08:15:29 PM 32.9111 -87.6181 249° West 418 481 36,000 71 Climbing Memphis Center
Wed 08:16:29 PM 32.8719 -87.7478 250° West 413 475 36,000  Level Memphis Center
Wed 08:17:29 PM 32.8328 -87.8700 249° West 413 475 36,000  Level Memphis Center
Wed 08:18:29 PM 32.7936 -87.9997 250° West 413 475 36,000  Level Memphis Center
Wed 08:19:29 PM 32.7561 -88.1242 250° West 413 475 36,000  Level Memphis Center
Wed 08:20:29 PM 32.7125 -88.2486 247° West 413 475 36,000  Level Memphis Center
Wed 08:21:29 PM 32.6706 -88.3756 249° West 413 475 36,000  Level Memphis Center
Wed 08:22:29 PM 32.6267 -88.5025 248° West 413 475 36,000  Level Memphis Center
Wed 08:23:29 PM 32.5867 -88.6264 249° West 413 475 36,000  Level Memphis Center
Wed 08:24:30 PM 32.5467 -88.7506 249° West 413 475 36,000  Level Memphis Center
Wed 08:25:29 PM 32.5064 -88.8744 249° West 413 475 36,000  Level Memphis Center
Wed 08:26:29 PM 32.4642 -88.9981 248° West 413 475 36,000  Level Memphis Center
Wed 08:27:29 PM 32.4256 -89.1194 249° West 413 475 36,000  Level Memphis Center
Wed 08:28:29 PM 32.3872 -89.2381 249° West 413 475 36,000  Level Memphis Center
Wed 08:29:29 PM 32.3483 -89.3589 249° West 403 464 36,000  Level Memphis Center
Wed 08:30:29 PM 32.3075 -89.4775 248° West 398 458 36,000  Level Memphis Center
Wed 08:31:29 PM 32.2667 -89.5981 248° West 398 458 36,000  Level Memphis Center
Wed 08:32:29 PM 32.2256 -89.7164 248° West 398 458 36,000  Level Memphis Center
Wed 08:33:29 PM 32.1864 -89.8369 249° West 398 458 36,000  Level Memphis Center
Wed 08:34:29 PM 32.1472 -89.9550 249° West 398 458 36,000  Level Memphis Center
Wed 08:35:29 PM 32.1081 -90.0753 249° West 398 458 36,000  Level Memphis Center
Wed 08:36:29 PM 32.0642 -90.1931 246° West 398 458 36,000  Level Memphis Center
Wed 08:37:29 PM 32.0247 -90.3158 249° West 398 458 36,000  Level Memphis Center
Wed 08:39:55 PM 31.9317 -90.5883 248° West 399 459 36,000  Level Houston Center
Wed 08:40:57 PM 31.8833 -90.7317 248° West 396 456 36,000  Level Houston Center
Wed 08:41:59 PM 31.8417 -90.8553 248° West 390 449 36,000  Level Houston Center
Wed 08:43:02 PM 31.8028 -90.9669 248° West 390 449 36,000  Level Houston Center
Wed 08:44:03 PM 31.7636 -91.0828 248° West 386 444 36,000  Level Houston Center
Wed 08:45:06 PM 31.7206 -91.2061 248° West 388 447 36,000  Level Houston Center
Wed 08:46:08 PM 31.6794 -91.3242 248° West 390 449 36,000  Level Houston Center
Wed 08:47:10 PM 31.6381 -91.4403 247° West 386 444 36,000  Level Houston Center
Wed 08:48:12 PM 31.5883 -91.5817 248° West 390 449 36,000  Level Houston Center
Wed 08:49:14 PM 31.5475 -91.6989 248° West 391 450 36,000  Level Houston Center
Wed 08:50:16 PM 31.5064 -91.8153 248° West 389 448 36,000  Level Houston Center
Wed 08:51:18 PM 31.4653 -91.9325 248° West 389 448 36,000  Level Houston Center
Wed 08:52:20 PM 31.4236 -92.0500 247° West 390 449 36,000  Level Houston Center
Wed 08:53:22 PM 31.3800 -92.1683 247° West 395 455 36,000  Level Houston Center
Wed 08:54:24 PM 31.3272 -92.3108 247° West 397 457 36,000  Level Houston Center
Wed 08:55:26 PM 31.2847 -92.4306 247° West 398 458 36,000  Level Houston Center
Wed 08:56:28 PM 31.2447 -92.5472 248° West 391 450 36,000  Level Houston Center
Wed 08:57:30 PM 31.1931 -92.6747 245° Southwest 400 460 36,000  Level Houston Center
Wed 08:58:32 PM 31.1508 -92.7906 247° West 391 450 36,000  Level Houston Center
Wed 08:59:34 PM 31.1081 -92.9061 247° West 389 448 36,000  Level Houston Center
Wed 09:00:36 PM 31.0644 -93.0222 246° West 392 451 36,000  Level Houston Center
Wed 09:01:38 PM 31.0211 -93.1375 246° West 389 448 36,000  Level Houston Center
Wed 09:02:39 PM 30.9778 -93.2528 246° West 390 449 36,000  Level Houston Center
Wed 09:03:41 PM 30.9258 -93.3911 246° West 389 448 36,000  Level Houston Center
Wed 09:04:43 PM 30.8817 -93.5058 246° West 390 449 36,000  Level Houston Center
Wed 09:05:45 PM 30.8408 -93.6128 246° West 386 444 36,000  Level Houston Center
Wed 09:06:47 PM 30.7972 -93.7272 246° West 386 444 36,000 -726 Level Houston Center
Wed 09:07:49 PM 30.7544 -93.8414 246° West 383 441 34,500 -2,683 Descending Houston Center
Wed 09:08:50 PM 30.7003 -93.9831 246° West 398 458 30,500 -3,366 Descending Houston Center
Wed 09:09:52 PM 30.6556 -94.1011 246° West 398 458 27,600 -2,779 Descending Houston Center
Wed 09:10:25 PM 30.6322 -94.1639 247° West 402 463 26,100 -2,419 Descending Houston Center
Wed 09:10:54 PM 30.6108 -94.2183 245° Southwest 395 455 25,100 -2,866 Descending Houston Center
Wed 09:11:32 PM 30.5822 -94.2944 246° West 394 453 22,900 -2,806 Descending Houston Center
Wed 09:11:56 PM 30.5656 -94.3361 245° Southwest 397 457 22,200 -2,164 Descending Houston Center
Wed 09:12:33 PM 30.5369 -94.4097 246° West 388 447 20,700 -2,226 Descending Houston Center
Wed 09:12:58 PM 30.5231 -94.4467 246° West 379 436 19,900 -2,361 Descending Houston Center
Wed 09:13:34 PM 30.4950 -94.5172 245° Southwest 369 425 18,300 -2,459 Descending Houston Center
Wed 09:13:59 PM 30.4747 -94.5506 235° Southwest 367 422 17,400 -2,328 Descending Houston Center
Wed 09:14:41 PM 30.4275 -94.6231 233° Southwest 347 399 15,700 -2,226 Descending Houston Center
Wed 09:15:01 PM 30.4114 -94.6478 233° Southwest 350 403 15,100 -2,073 Descending Houston Center
Wed 09:15:36 PM 30.3747 -94.7072 234° Southwest 343 395 13,800 -1,935 Descending Houston Center
Wed 09:16:03 PM 30.3553 -94.7356 232° Southwest 342 394 13,100 -2,066 Descending Houston Center
Wed 09:16:37 PM 30.3178 -94.7944 234° Southwest 333 383 11,700 -1,869 Descending Houston Center
Wed 09:17:04 PM 30.3003 -94.8228 234° Southwest 337 388 11,200 -984 Descending Houston Center
Wed 09:17:38 PM 30.2611 -94.8814 232° Southwest 332 382 10,700 -677 Descending Houston Center
Wed 09:18:06 PM 30.2433 -94.9047 229° Southwest 331 381 10,500 -581 Descending Houston Center
Wed 09:18:40 PM 30.1911 -94.9433 213° Southwest 322 371 10,100 -484 Descending Houston Center
Wed 09:19:08 PM 30.1689 -94.9625 217° Southwest 320 368 10,000 -98 Descending Houston Center
Wed 09:19:41 PM 30.1128 -95.0039 213° Southwest 319 367 10,000  Level Houston Center
Wed 09:20:10 PM 30.0814 -95.0300 216° Southwest 316 364 10,000  Level Houston Center
Wed 09:20:42 PM 30.0386 -95.0639 214° Southwest 318 366 10,000  Level Houston Center
Wed 09:21:11 PM 30.0069 -95.0867 212° Southwest 319 367 10,000  Level Houston Center
Wed 09:21:43 PM 29.9642 -95.1189 213° Southwest 319 367 10,000  Level Houston Center
Wed 09:22:13 PM 29.9339 -95.1447 216° Southwest 320 368 10,000  Level Houston Center
Wed 09:22:38 PM 29.8978 -95.1731 214° Southwest 319 367 10,000  Level Houston Center
Wed 09:23:15 PM 29.8619 -95.1939 207° Southwest 297 342 10,000 -393 Level Houston Center
Wed 09:23:39 PM 29.8275 -95.2081 200° South 240 276 9,600 -1,180 Descending Houston Center
Wed 09:24:16 PM 29.7947 -95.2233 202° Southwest 258 297 8,800 -1,562 Descending Houston Center
Wed 09:24:52 PM 29.7497 -95.2536 210° Southwest 254 292 7,700 -1,548 Descending Houston Center
Wed 09:25:18 PM 29.7361 -95.2667 220° Southwest 256 295 7,200 -1,714 Descending Houston Center
Wed 09:25:41 PM 29.7072 -95.2947 220° Southwest 261 300 6,300 -1,161 Descending Houston Center
Wed 09:26:20 PM 29.6722 -95.3331 224° Southwest 261 300 6,000 -689 Descending Houston Center
Wed 09:26:42 PM 29.6519 -95.3544 223° Southwest 257 296 5,600 -1,279 Descending Houston Center
Wed 09:27:21 PM 29.6489 -95.4061 266° West 278 320 4,700 -1,574 Descending Houston Center
Wed 09:27:43 PM 29.6700 -95.4389 307° West 311 358 4,000 -1,452 Descending Houston Center
Wed 09:28:23 PM 29.7031 -95.4806 312° West 303 349 3,200 -1,377 Descending Houston Center
Wed 09:28:44 PM 29.7289 -95.5064 319° Northwest 300 345 2,600 -1,065 Descending Houston Center
Wed 09:29:25 PM 29.7711 -95.4983 North 294 338 2,100 -448 Descending Houston Center
Wed 09:29:51 PM 29.7794 -95.4619 75° East 201 231 2,100 -98 Level Houston Center
Wed 09:30:26 PM 29.7750 -95.4339 100° East 236 272 2,000 -98 Descending Houston Center
Wed 09:30:52 PM 29.7556 -95.4094 132° Southeast 183 211 2,000  Level Houston Center
Wed 09:31:28 PM 29.7408 -95.3933 136° Southeast 196 226 2,000  Level Houston Center

Login

Don't have an account? Register now (free) for customized features, flight alerts, and more!